Welcome to La Porte Aviation Services!

An aviation adventure awaits

Current Weather Conditions

Available data for KPPO from the past 2 hours
LA PORTE, IN
Metar
KPPO 220255Z AUTO 00000KT 10SM CLR M01/M02 A3011 RMK AO2 T10111024

02:55 UTC

Wind: 0° 0kt

Visibility: 10 SM

Sky:

Temp: -1 deg C / 30.2 deg F

Dewpoint: -2 deg C / 28.4 deg F

Pressure: 30.11 inHg

Pirep (1)
JOT UA /OV JOT/TM 0139/FL370/TP A320/TB NEG

Connect with us on Facebook!

Facebook By Weblizar Powered By Weblizar